sensor_id;sensor_type;location;lat;lon;timestamp;temperature;humidity
16172;DHT22;8192;53.596;10.166;2024-02-16T00:00:24;10.60;99.90
16172;DHT22;8192;53.596;10.166;2024-02-16T00:02:52;10.60;99.90
16172;DHT22;8192;53.596;10.166;2024-02-16T00:05:19;10.60;99.90
16172;DHT22;8192;53.596;10.166;2024-02-16T00:07:46;10.60;99.90
16172;DHT22;8192;53.596;10.166;2024-02-16T00:10:12;10.50;99.90
16172;DHT22;8192;53.596;10.166;2024-02-16T00:12:39;10.50;99.90
16172;DHT22;8192;53.596;10.166;2024-02-16T00:15:09;10.60;99.90
16172;DHT22;8192;53.596;10.166;2024-02-16T00:17:36;10.60;99.90
16172;DHT22;8192;53.596;10.166;2024-02-16T00:20:04;10.60;99.90
16172;DHT22;8192;53.596;10.166;2024-02-16T00:22:32;10.60;99.90
16172;DHT22;8192;53.596;10.166;2024-02-16T00:25:00;10.60;99.90
16172;DHT22;8192;53.596;10.166;2024-02-16T00:27:27;10.50;99.90
16172;DHT22;8192;53.596;10.166;2024-02-16T00:29:54;10.50;99.90
16172;DHT22;8192;53.596;10.166;2024-02-16T00:32:22;10.40;99.90
16172;DHT22;8192;53.596;10.166;2024-02-16T00:34:50;10.40;99.90
16172;DHT22;8192;53.596;10.166;2024-02-16T00:37:19;10.40;99.90
16172;DHT22;8192;53.596;10.166;2024-02-16T00:39:46;10.30;99.90
16172;DHT22;8192;53.596;10.166;2024-02-16T00:42:13;10.30;99.90
16172;DHT22;8192;53.596;10.166;2024-02-16T00:44:40;10.40;99.90
16172;DHT22;8192;53.596;10.166;2024-02-16T00:47:08;10.40;99.90
16172;DHT22;8192;53.596;10.166;2024-02-16T00:49:37;10.40;99.90
16172;DHT22;8192;53.596;10.166;2024-02-16T00:52:05;10.50;99.90
16172;DHT22;8192;53.596;10.166;2024-02-16T00:54:31;10.50;99.90
16172;DHT22;8192;53.596;10.166;2024-02-16T00:56:58;10.40;99.90
16172;DHT22;8192;53.596;10.166;2024-02-16T00:59:28;10.40;99.90
16172;DHT22;8192;53.596;10.166;2024-02-16T01:01:55;10.40;99.90
16172;DHT22;8192;53.596;10.166;2024-02-16T01:04:21;10.40;99.90
16172;DHT22;8192;53.596;10.166;2024-02-16T01:06:50;10.40;99.90
16172;DHT22;8192;53.596;10.166;2024-02-16T01:09:17;10.40;99.90
16172;DHT22;8192;53.596;10.166;2024-02-16T01:11:44;10.30;99.90
16172;DHT22;8192;53.596;10.166;2024-02-16T01:14:11;10.20;99.90
16172;DHT22;8192;53.596;10.166;2024-02-16T01:16:38;10.10;99.90
16172;DHT22;8192;53.596;10.166;2024-02-16T01:19:04;10.10;99.90
16172;DHT22;8192;53.596;10.166;2024-02-16T01:21:32;10.10;99.90
16172;DHT22;8192;53.596;10.166;2024-02-16T01:24:01;10.10;99.90
16172;DHT22;8192;53.596;10.166;2024-02-16T01:26:29;10.00;99.90
16172;DHT22;8192;53.596;10.166;2024-02-16T01:28:56;9.80;99.90
16172;DHT22;8192;53.596;10.166;2024-02-16T01:31:23;9.80;99.90
16172;DHT22;8192;53.596;10.166;2024-02-16T01:33:50;9.70;99.90
16172;DHT22;8192;53.596;10.166;2024-02-16T01:36:18;9.70;99.90
16172;DHT22;8192;53.596;10.166;2024-02-16T01:38:45;9.60;99.90
16172;DHT22;8192;53.596;10.166;2024-02-16T01:41:13;9.50;99.90
16172;DHT22;8192;53.596;10.166;2024-02-16T01:43:40;9.60;99.90
16172;DHT22;8192;53.596;10.166;2024-02-16T01:46:07;9.60;99.90
16172;DHT22;8192;53.596;10.166;2024-02-16T01:48:34;9.70;99.90
16172;DHT22;8192;53.596;10.166;2024-02-16T01:51:01;9.70;99.90
16172;DHT22;8192;53.596;10.166;2024-02-16T01:53:28;9.70;99.90
16172;DHT22;8192;53.596;10.166;2024-02-16T01:55:55;9.70;99.90
16172;DHT22;8192;53.596;10.166;2024-02-16T01:58:24;9.70;99.90
16172;DHT22;8192;53.596;10.166;2024-02-16T02:00:52;9.60;99.90
16172;DHT22;8192;53.596;10.166;2024-02-16T02:03:20;9.60;99.90
16172;DHT22;8192;53.596;10.166;2024-02-16T02:05:48;9.60;99.90
16172;DHT22;8192;53.596;10.166;2024-02-16T02:08:16;9.60;99.90
16172;DHT22;8192;53.596;10.166;2024-02-16T02:10:43;9.60;99.90
16172;DHT22;8192;53.596;10.166;2024-02-16T02:13:10;9.70;99.90
16172;DHT22;8192;53.596;10.166;2024-02-16T02:15:38;9.70;99.90
16172;DHT22;8192;53.596;10.166;2024-02-16T02:18:05;9.70;99.90
16172;DHT22;8192;53.596;10.166;2024-02-16T02:20:32;9.80;99.90
16172;DHT22;8192;53.596;10.166;2024-02-16T02:23:00;9.90;99.90
16172;DHT22;8192;53.596;10.166;2024-02-16T02:25:29;9.80;99.90
16172;DHT22;8192;53.596;10.166;2024-02-16T02:27:56;9.90;99.90
16172;DHT22;8192;53.596;10.166;2024-02-16T02:30:23;9.90;99.90
16172;DHT22;8192;53.596;10.166;2024-02-16T02:32:50;9.80;99.90
16172;DHT22;8192;53.596;10.166;2024-02-16T02:35:18;9.90;99.90
16172;DHT22;8192;53.596;10.166;2024-02-16T02:37:45;9.90;99.90
16172;DHT22;8192;53.596;10.166;2024-02-16T02:40:14;9.90;99.90
16172;DHT22;8192;53.596;10.166;2024-02-16T02:42:41;9.90;99.90
16172;DHT22;8192;53.596;10.166;2024-02-16T02:45:08;10.00;99.90
16172;DHT22;8192;53.596;10.166;2024-02-16T02:47:35;10.00;99.90
16172;DHT22;8192;53.596;10.166;2024-02-16T02:50:03;9.90;99.90
16172;DHT22;8192;53.596;10.166;2024-02-16T02:52:30;9.80;99.90
16172;DHT22;8192;53.596;10.166;2024-02-16T02:54:57;9.80;99.90
16172;DHT22;8192;53.596;10.166;2024-02-16T02:57:25;9.70;99.90
16172;DHT22;8192;53.596;10.166;2024-02-16T02:59:52;9.70;99.90
16172;DHT22;8192;53.596;10.166;2024-02-16T03:02:19;9.60;99.90
16172;DHT22;8192;53.596;10.166;2024-02-16T03:04:46;9.60;99.90
16172;DHT22;8192;53.596;10.166;2024-02-16T03:07:13;9.60;99.90
16172;DHT22;8192;53.596;10.166;2024-02-16T03:09:40;9.60;99.90
16172;DHT22;8192;53.596;10.166;2024-02-16T03:12:09;9.60;99.90
16172;DHT22;8192;53.596;10.166;2024-02-16T03:14:38;9.60;99.90
16172;DHT22;8192;53.596;10.166;2024-02-16T03:17:04;9.70;99.90
16172;DHT22;8192;53.596;10.166;2024-02-16T03:19:31;9.80;99.90
16172;DHT22;8192;53.596;10.166;2024-02-16T03:21:58;9.80;99.90
16172;DHT22;8192;53.596;10.166;2024-02-16T03:24:25;9.80;99.90
16172;DHT22;8192;53.596;10.166;2024-02-16T03:26:52;9.80;99.90
16172;DHT22;8192;53.596;10.166;2024-02-16T03:29:19;9.80;99.90
16172;DHT22;8192;53.596;10.166;2024-02-16T03:31:47;9.80;99.90
16172;DHT22;8192;53.596;10.166;2024-02-16T03:34:14;9.80;99.90
16172;DHT22;8192;53.596;10.166;2024-02-16T03:36:41;9.90;99.90
16172;DHT22;8192;53.596;10.166;2024-02-16T03:39:08;9.90;99.90
16172;DHT22;8192;53.596;10.166;2024-02-16T03:41:35;9.90;99.90
16172;DHT22;8192;53.596;10.166;2024-02-16T03:44:02;9.90;99.90
16172;DHT22;8192;53.596;10.166;2024-02-16T03:46:29;10.00;99.90
16172;DHT22;8192;53.596;10.166;2024-02-16T03:48:57;10.00;99.90
16172;DHT22;8192;53.596;10.166;2024-02-16T03:51:24;10.00;99.90
16172;DHT22;8192;53.596;10.166;2024-02-16T03:53:51;9.90;99.90
16172;DHT22;8192;53.596;10.166;2024-02-16T03:56:21;10.00;99.90
16172;DHT22;8192;53.596;10.166;2024-02-16T03:58:48;10.00;99.90
16172;DHT22;8192;53.596;10.166;2024-02-16T04:01:14;10.00;99.90
16172;DHT22;8192;53.596;10.166;2024-02-16T04:03:44;10.00;99.90
16172;DHT22;8192;53.596;10.166;2024-02-16T04:06:12;10.00;99.90
16172;DHT22;8192;53.596;10.166;2024-02-16T04:08:39;9.90;99.90
16172;DHT22;8192;53.596;10.166;2024-02-16T04:11:06;9.90;99.90
16172;DHT22;8192;53.596;10.166;2024-02-16T04:13:33;9.90;99.90
16172;DHT22;8192;53.596;10.166;2024-02-16T04:16:00;9.90;99.90
16172;DHT22;8192;53.596;10.166;2024-02-16T04:18:27;9.90;99.90
16172;DHT22;8192;53.596;10.166;2024-02-16T04:20:54;10.00;99.90
16172;DHT22;8192;53.596;10.166;2024-02-16T04:23:22;10.00;99.90
16172;DHT22;8192;53.596;10.166;2024-02-16T04:25:49;10.00;99.90
16172;DHT22;8192;53.596;10.166;2024-02-16T04:28:16;10.00;99.90
16172;DHT22;8192;53.596;10.166;2024-02-16T04:30:44;10.10;99.90
16172;DHT22;8192;53.596;10.166;2024-02-16T04:33:11;10.10;99.90
16172;DHT22;8192;53.596;10.166;2024-02-16T04:35:38;10.00;99.90
16172;DHT22;8192;53.596;10.166;2024-02-16T04:38:05;10.00;99.90
16172;DHT22;8192;53.596;10.166;2024-02-16T04:40:36;10.00;99.90
16172;DHT22;8192;53.596;10.166;2024-02-16T04:43:04;10.00;99.90
16172;DHT22;8192;53.596;10.166;2024-02-16T04:45:31;10.00;99.90
16172;DHT22;8192;53.596;10.166;2024-02-16T04:48:01;10.00;99.90
16172;DHT22;8192;53.596;10.166;2024-02-16T04:50:28;10.00;99.90
16172;DHT22;8192;53.596;10.166;2024-02-16T04:53:03;10.00;99.90
16172;DHT22;8192;53.596;10.166;2024-02-16T04:55:30;10.00;99.90
16172;DHT22;8192;53.596;10.166;2024-02-16T04:57:59;10.00;99.90
16172;DHT22;8192;53.596;10.166;2024-02-16T05:00:26;10.00;99.90
16172;DHT22;8192;53.596;10.166;2024-02-16T05:02:53;10.00;99.90
16172;DHT22;8192;53.596;10.166;2024-02-16T05:05:20;10.00;99.90
16172;DHT22;8192;53.596;10.166;2024-02-16T05:07:48;10.00;99.90
16172;DHT22;8192;53.596;10.166;2024-02-16T05:10:16;9.90;99.90
16172;DHT22;8192;53.596;10.166;2024-02-16T05:12:43;9.90;99.90
16172;DHT22;8192;53.596;10.166;2024-02-16T05:15:11;9.80;99.90
16172;DHT22;8192;53.596;10.166;2024-02-16T05:17:39;9.80;99.90
16172;DHT22;8192;53.596;10.166;2024-02-16T05:20:10;9.80;99.90
16172;DHT22;8192;53.596;10.166;2024-02-16T05:22:41;9.80;99.90
16172;DHT22;8192;53.596;10.166;2024-02-16T05:25:08;9.90;99.90
16172;DHT22;8192;53.596;10.166;2024-02-16T05:27:36;9.90;99.90
16172;DHT22;8192;53.596;10.166;2024-02-16T05:30:04;9.80;99.90
16172;DHT22;8192;53.596;10.166;2024-02-16T05:32:38;9.80;99.90
16172;DHT22;8192;53.596;10.166;2024-02-16T05:35:07;9.80;99.90
16172;DHT22;8192;53.596;10.166;2024-02-16T05:37:37;9.80;99.90
16172;DHT22;8192;53.596;10.166;2024-02-16T05:40:07;9.80;99.90
16172;DHT22;8192;53.596;10.166;2024-02-16T05:42:45;9.70;99.90
16172;DHT22;8192;53.596;10.166;2024-02-16T05:45:13;9.70;99.90
16172;DHT22;8192;53.596;10.166;2024-02-16T05:47:41;9.80;99.90
16172;DHT22;8192;53.596;10.166;2024-02-16T05:50:11;9.80;99.90
16172;DHT22;8192;53.596;10.166;2024-02-16T05:52:38;9.80;99.90
16172;DHT22;8192;53.596;10.166;2024-02-16T05:55:06;9.90;99.90
16172;DHT22;8192;53.596;10.166;2024-02-16T05:57:33;9.80;99.90
16172;DHT22;8192;53.596;10.166;2024-02-16T06:00:00;9.80;99.90
16172;DHT22;8192;53.596;10.166;2024-02-16T06:02:29;9.70;99.90
16172;DHT22;8192;53.596;10.166;2024-02-16T06:04:57;9.70;99.90
16172;DHT22;8192;53.596;10.166;2024-02-16T06:07:24;9.70;99.90
16172;DHT22;8192;53.596;10.166;2024-02-16T06:09:51;9.70;99.90
16172;DHT22;8192;53.596;10.166;2024-02-16T06:12:19;9.70;99.90
16172;DHT22;8192;53.596;10.166;2024-02-16T06:14:46;9.70;99.90
16172;DHT22;8192;53.596;10.166;2024-02-16T06:17:14;9.60;99.90
16172;DHT22;8192;53.596;10.166;2024-02-16T06:19:42;9.70;99.90
16172;DHT22;8192;53.596;10.166;2024-02-16T06:22:10;9.70;99.90
16172;DHT22;8192;53.596;10.166;2024-02-16T06:24:37;9.70;99.90
16172;DHT22;8192;53.596;10.166;2024-02-16T06:27:04;9.70;99.90
16172;DHT22;8192;53.596;10.166;2024-02-16T06:29:33;9.70;99.90
16172;DHT22;8192;53.596;10.166;2024-02-16T06:32:00;9.70;99.90
16172;DHT22;8192;53.596;10.166;2024-02-16T06:34:29;9.70;99.90
16172;DHT22;8192;53.596;10.166;2024-02-16T06:36:56;9.60;99.90
16172;DHT22;8192;53.596;10.166;2024-02-16T06:39:25;9.60;99.90
16172;DHT22;8192;53.596;10.166;2024-02-16T06:41:52;9.60;99.90
16172;DHT22;8192;53.596;10.166;2024-02-16T06:44:19;9.50;99.90
16172;DHT22;8192;53.596;10.166;2024-02-16T06:46:45;9.50;99.90
16172;DHT22;8192;53.596;10.166;2024-02-16T06:49:12;9.40;99.90
16172;DHT22;8192;53.596;10.166;2024-02-16T06:51:39;9.40;99.90
16172;DHT22;8192;53.596;10.166;2024-02-16T06:54:06;9.40;99.90
16172;DHT22;8192;53.596;10.166;2024-02-16T06:56:35;9.40;99.90
16172;DHT22;8192;53.596;10.166;2024-02-16T06:59:02;9.30;99.90
16172;DHT22;8192;53.596;10.166;2024-02-16T07:01:29;9.30;99.90
16172;DHT22;8192;53.596;10.166;2024-02-16T07:03:56;9.30;99.90
16172;DHT22;8192;53.596;10.166;2024-02-16T07:06:23;9.30;99.90
16172;DHT22;8192;53.596;10.166;2024-02-16T07:08:50;9.40;99.90
16172;DHT22;8192;53.596;10.166;2024-02-16T07:11:17;9.40;99.90
16172;DHT22;8192;53.596;10.166;2024-02-16T07:13:50;9.50;99.90
16172;DHT22;8192;53.596;10.166;2024-02-16T07:16:17;9.40;99.90
16172;DHT22;8192;53.596;10.166;2024-02-16T07:18:44;9.50;99.90
16172;DHT22;8192;53.596;10.166;2024-02-16T07:21:11;9.50;99.90
16172;DHT22;8192;53.596;10.166;2024-02-16T07:23:38;9.50;99.90
16172;DHT22;8192;53.596;10.166;2024-02-16T07:26:05;9.50;99.90
16172;DHT22;8192;53.596;10.166;2024-02-16T07:28:33;9.40;99.90
16172;DHT22;8192;53.596;10.166;2024-02-16T07:31:02;9.30;99.90
16172;DHT22;8192;53.596;10.166;2024-02-16T07:33:29;9.30;99.90
16172;DHT22;8192;53.596;10.166;2024-02-16T07:35:56;9.30;99.90
16172;DHT22;8192;53.596;10.166;2024-02-16T07:38:23;9.40;99.90
16172;DHT22;8192;53.596;10.166;2024-02-16T07:40:50;9.60;99.90
16172;DHT22;8192;53.596;10.166;2024-02-16T07:43:17;9.80;99.90
16172;DHT22;8192;53.596;10.166;2024-02-16T07:45:44;9.90;99.90
16172;DHT22;8192;53.596;10.166;2024-02-16T07:48:12;10.00;99.90
16172;DHT22;8192;53.596;10.166;2024-02-16T07:50:39;10.10;99.90
16172;DHT22;8192;53.596;10.166;2024-02-16T07:53:06;10.20;99.90
16172;DHT22;8192;53.596;10.166;2024-02-16T07:55:35;10.30;99.90
16172;DHT22;8192;53.596;10.166;2024-02-16T07:58:02;10.40;99.90
16172;DHT22;8192;53.596;10.166;2024-02-16T08:00:29;10.60;99.90
16172;DHT22;8192;53.596;10.166;2024-02-16T08:02:56;10.70;99.90
16172;DHT22;8192;53.596;10.166;2024-02-16T08:05:24;10.80;99.90
16172;DHT22;8192;53.596;10.166;2024-02-16T08:07:52;11.00;99.90
16172;DHT22;8192;53.596;10.166;2024-02-16T08:10:19;11.00;99.90
16172;DHT22;8192;53.596;10.166;2024-02-16T08:12:47;10.90;99.90
16172;DHT22;8192;53.596;10.166;2024-02-16T08:15:14;10.90;99.90
16172;DHT22;8192;53.596;10.166;2024-02-16T08:17:41;10.90;99.90
16172;DHT22;8192;53.596;10.166;2024-02-16T08:20:09;10.80;99.90
16172;DHT22;8192;53.596;10.166;2024-02-16T08:22:37;10.90;99.90
16172;DHT22;8192;53.596;10.166;2024-02-16T08:25:06;11.10;99.90
16172;DHT22;8192;53.596;10.166;2024-02-16T08:27:33;11.30;99.90
16172;DHT22;8192;53.596;10.166;2024-02-16T08:30:00;11.40;99.90
16172;DHT22;8192;53.596;10.166;2024-02-16T08:32:29;11.60;99.90
16172;DHT22;8192;53.596;10.166;2024-02-16T08:34:56;11.70;99.90
16172;DHT22;8192;53.596;10.166;2024-02-16T08:37:24;11.80;99.90
16172;DHT22;8192;53.596;10.166;2024-02-16T08:39:52;11.80;99.90
16172;DHT22;8192;53.596;10.166;2024-02-16T08:42:19;11.70;99.90
16172;DHT22;8192;53.596;10.166;2024-02-16T08:44:48;11.60;99.90
16172;DHT22;8192;53.596;10.166;2024-02-16T08:47:15;11.50;99.90
16172;DHT22;8192;53.596;10.166;2024-02-16T08:49:42;11.60;99.90
16172;DHT22;8192;53.596;10.166;2024-02-16T08:52:09;11.50;99.90
16172;DHT22;8192;53.596;10.166;2024-02-16T08:54:35;11.50;99.90
16172;DHT22;8192;53.596;10.166;2024-02-16T08:57:06;11.40;99.90
16172;DHT22;8192;53.596;10.166;2024-02-16T08:59:33;11.30;99.90
16172;DHT22;8192;53.596;10.166;2024-02-16T09:02:00;11.30;99.90
16172;DHT22;8192;53.596;10.166;2024-02-16T09:04:28;11.20;99.90
16172;DHT22;8192;53.596;10.166;2024-02-16T09:06:54;11.20;99.90
16172;DHT22;8192;53.596;10.166;2024-02-16T09:09:21;11.20;99.90
16172;DHT22;8192;53.596;10.166;2024-02-16T09:11:48;11.30;99.90
16172;DHT22;8192;53.596;10.166;2024-02-16T09:14:17;11.30;99.90
16172;DHT22;8192;53.596;10.166;2024-02-16T09:16:43;11.20;99.90
16172;DHT22;8192;53.596;10.166;2024-02-16T09:19:10;11.30;99.90
16172;DHT22;8192;53.596;10.166;2024-02-16T09:21:37;11.40;99.90
16172;DHT22;8192;53.596;10.166;2024-02-16T09:24:05;11.40;99.90
16172;DHT22;8192;53.596;10.166;2024-02-16T09:26:36;11.40;99.90
16172;DHT22;8192;53.596;10.166;2024-02-16T09:29:02;11.40;99.90
16172;DHT22;8192;53.596;10.166;2024-02-16T09:31:32;11.40;99.90
16172;DHT22;8192;53.596;10.166;2024-02-16T09:33:59;11.40;99.90
16172;DHT22;8192;53.596;10.166;2024-02-16T09:36:25;11.40;99.90
16172;DHT22;8192;53.596;10.166;2024-02-16T09:38:52;11.50;99.90
16172;DHT22;8192;53.596;10.166;2024-02-16T09:41:19;11.50;99.90
16172;DHT22;8192;53.596;10.166;2024-02-16T09:43:46;11.50;99.90
16172;DHT22;8192;53.596;10.166;2024-02-16T09:46:15;11.60;99.90
16172;DHT22;8192;53.596;10.166;2024-02-16T09:48:46;11.50;99.90
16172;DHT22;8192;53.596;10.166;2024-02-16T09:51:14;11.50;99.90
16172;DHT22;8192;53.596;10.166;2024-02-16T09:53:42;11.60;99.90
16172;DHT22;8192;53.596;10.166;2024-02-16T09:56:09;11.70;99.90
16172;DHT22;8192;53.596;10.166;2024-02-16T09:58:36;11.80;99.90
16172;DHT22;8192;53.596;10.166;2024-02-16T10:01:04;11.80;99.90
16172;DHT22;8192;53.596;10.166;2024-02-16T10:03:31;11.90;99.90
16172;DHT22;8192;53.596;10.166;2024-02-16T10:06:08;12.00;99.90
16172;DHT22;8192;53.596;10.166;2024-02-16T10:08:47;12.10;99.90
16172;DHT22;8192;53.596;10.166;2024-02-16T10:11:15;12.20;99.90
16172;DHT22;8192;53.596;10.166;2024-02-16T10:13:53;12.20;99.90
16172;DHT22;8192;53.596;10.166;2024-02-16T10:16:20;12.40;99.90
16172;DHT22;8192;53.596;10.166;2024-02-16T10:18:47;12.50;99.90
16172;DHT22;8192;53.596;10.166;2024-02-16T10:21:24;12.60;99.90
16172;DHT22;8192;53.596;10.166;2024-02-16T10:23:56;12.70;99.90
16172;DHT22;8192;53.596;10.166;2024-02-16T10:26:23;12.80;99.90
16172;DHT22;8192;53.596;10.166;2024-02-16T10:28:54;12.80;99.90
16172;DHT22;8192;53.596;10.166;2024-02-16T10:31:23;13.20;99.90
16172;DHT22;8192;53.596;10.166;2024-02-16T10:33:58;13.40;99.90
16172;DHT22;8192;53.596;10.166;2024-02-16T10:36:28;13.40;99.90
16172;DHT22;8192;53.596;10.166;2024-02-16T10:38:57;13.60;99.90
16172;DHT22;8192;53.596;10.166;2024-02-16T10:41:26;13.90;99.90
16172;DHT22;8192;53.596;10.166;2024-02-16T10:43:56;14.10;99.90
16172;DHT22;8192;53.596;10.166;2024-02-16T10:46:24;14.20;99.90
16172;DHT22;8192;53.596;10.166;2024-02-16T10:48:51;14.30;99.90
16172;DHT22;8192;53.596;10.166;2024-02-16T10:51:23;14.30;99.90
16172;DHT22;8192;53.596;10.166;2024-02-16T10:53:54;14.30;99.90
16172;DHT22;8192;53.596;10.166;2024-02-16T10:56:32;14.10;99.90
16172;DHT22;8192;53.596;10.166;2024-02-16T10:59:01;14.10;99.90
16172;DHT22;8192;53.596;10.166;2024-02-16T11:01:32;14.00;99.90
16172;DHT22;8192;53.596;10.166;2024-02-16T11:04:03;14.00;99.90
16172;DHT22;8192;53.596;10.166;2024-02-16T11:06:44;14.00;99.90
16172;DHT22;8192;53.596;10.166;2024-02-16T11:09:23;13.90;99.90
16172;DHT22;8192;53.596;10.166;2024-02-16T11:11:52;14.10;99.90
16172;DHT22;8192;53.596;10.166;2024-02-16T11:14:20;14.40;99.90
16172;DHT22;8192;53.596;10.166;2024-02-16T11:16:47;14.50;99.90
16172;DHT22;8192;53.596;10.166;2024-02-16T11:19:14;14.70;99.90
16172;DHT22;8192;53.596;10.166;2024-02-16T11:21:56;14.80;99.90
16172;DHT22;8192;53.596;10.166;2024-02-16T11:24:30;14.90;99.90
16172;DHT22;8192;53.596;10.166;2024-02-16T11:26:57;15.00;99.90
16172;DHT22;8192;53.596;10.166;2024-02-16T11:29:25;15.10;99.90
16172;DHT22;8192;53.596;10.166;2024-02-16T11:31:53;15.20;99.90
16172;DHT22;8192;53.596;10.166;2024-02-16T11:34:22;15.30;99.90
16172;DHT22;8192;53.596;10.166;2024-02-16T11:36:49;15.40;99.90
16172;DHT22;8192;53.596;10.166;2024-02-16T11:39:19;15.40;99.90
16172;DHT22;8192;53.596;10.166;2024-02-16T11:41:48;15.50;99.90
16172;DHT22;8192;53.596;10.166;2024-02-16T11:44:15;15.50;99.90
16172;DHT22;8192;53.596;10.166;2024-02-16T11:46:43;15.60;99.90
16172;DHT22;8192;53.596;10.166;2024-02-16T11:49:09;15.50;99.90
16172;DHT22;8192;53.596;10.166;2024-02-16T11:51:37;15.40;99.90
16172;DHT22;8192;53.596;10.166;2024-02-16T11:54:05;15.50;99.90
16172;DHT22;8192;53.596;10.166;2024-02-16T11:56:32;15.40;99.90
16172;DHT22;8192;53.596;10.166;2024-02-16T11:59:01;15.30;99.90
16172;DHT22;8192;53.596;10.166;2024-02-16T12:01:34;15.40;99.90
16172;DHT22;8192;53.596;10.166;2024-02-16T12:04:01;15.40;99.90
16172;DHT22;8192;53.596;10.166;2024-02-16T12:06:29;15.60;99.90
16172;DHT22;8192;53.596;10.166;2024-02-16T12:08:56;15.60;99.90
16172;DHT22;8192;53.596;10.166;2024-02-16T12:11:23;15.70;99.90
16172;DHT22;8192;53.596;10.166;2024-02-16T12:13:50;15.70;99.90
16172;DHT22;8192;53.596;10.166;2024-02-16T12:16:20;15.60;99.90
16172;DHT22;8192;53.596;10.166;2024-02-16T12:18:47;15.40;99.90
16172;DHT22;8192;53.596;10.166;2024-02-16T12:21:17;15.40;99.90
16172;DHT22;8192;53.596;10.166;2024-02-16T12:23:46;15.40;99.90
16172;DHT22;8192;53.596;10.166;2024-02-16T12:26:13;15.50;99.90
16172;DHT22;8192;53.596;10.166;2024-02-16T12:28:40;15.40;99.90
16172;DHT22;8192;53.596;10.166;2024-02-16T12:31:08;15.30;99.90
16172;DHT22;8192;53.596;10.166;2024-02-16T12:33:36;15.40;99.90
16172;DHT22;8192;53.596;10.166;2024-02-16T12:36:03;15.30;99.90
16172;DHT22;8192;53.596;10.166;2024-02-16T12:38:30;15.40;99.90
16172;DHT22;8192;53.596;10.166;2024-02-16T12:40:57;15.30;99.90
16172;DHT22;8192;53.596;10.166;2024-02-16T12:43:25;15.30;99.90
16172;DHT22;8192;53.596;10.166;2024-02-16T12:45:52;15.40;99.90
16172;DHT22;8192;53.596;10.166;2024-02-16T12:48:19;15.50;99.90
16172;DHT22;8192;53.596;10.166;2024-02-16T12:50:47;15.50;99.90
16172;DHT22;8192;53.596;10.166;2024-02-16T12:53:14;15.50;99.90
16172;DHT22;8192;53.596;10.166;2024-02-16T12:55:42;15.40;99.90
16172;DHT22;8192;53.596;10.166;2024-02-16T12:58:09;15.50;99.90
16172;DHT22;8192;53.596;10.166;2024-02-16T13:00:36;15.50;99.90
16172;DHT22;8192;53.596;10.166;2024-02-16T13:03:04;15.40;99.90
16172;DHT22;8192;53.596;10.166;2024-02-16T13:05:30;15.30;99.90
16172;DHT22;8192;53.596;10.166;2024-02-16T13:08:00;15.30;99.90
16172;DHT22;8192;53.596;10.166;2024-02-16T13:10:26;15.40;99.90
16172;DHT22;8192;53.596;10.166;2024-02-16T13:12:53;15.30;99.90
16172;DHT22;8192;53.596;10.166;2024-02-16T13:15:20;15.20;99.90
16172;DHT22;8192;53.596;10.166;2024-02-16T13:17:47;15.00;99.90
16172;DHT22;8192;53.596;10.166;2024-02-16T13:20:14;14.80;99.90
16172;DHT22;8192;53.596;10.166;2024-02-16T13:22:41;14.70;99.90
16172;DHT22;8192;53.596;10.166;2024-02-16T13:25:10;14.70;99.90
16172;DHT22;8192;53.596;10.166;2024-02-16T13:27:37;14.70;99.90
16172;DHT22;8192;53.596;10.166;2024-02-16T13:30:06;14.70;99.90
16172;DHT22;8192;53.596;10.166;2024-02-16T13:32:33;14.70;99.90
16172;DHT22;8192;53.596;10.166;2024-02-16T13:35:02;14.80;99.90
16172;DHT22;8192;53.596;10.166;2024-02-16T13:37:29;14.80;99.90
16172;DHT22;8192;53.596;10.166;2024-02-16T13:39:56;14.80;99.90
16172;DHT22;8192;53.596;10.166;2024-02-16T13:42:24;14.80;99.90
16172;DHT22;8192;53.596;10.166;2024-02-16T13:44:53;14.80;99.90
16172;DHT22;8192;53.596;10.166;2024-02-16T13:47:22;14.80;99.90
16172;DHT22;8192;53.596;10.166;2024-02-16T13:49:49;14.80;99.90
16172;DHT22;8192;53.596;10.166;2024-02-16T13:52:17;14.80;99.90
16172;DHT22;8192;53.596;10.166;2024-02-16T13:54:44;14.80;99.90
16172;DHT22;8192;53.596;10.166;2024-02-16T13:57:12;14.90;99.90
16172;DHT22;8192;53.596;10.166;2024-02-16T13:59:40;14.80;99.90
16172;DHT22;8192;53.596;10.166;2024-02-16T14:02:07;14.80;99.90
16172;DHT22;8192;53.596;10.166;2024-02-16T14:04:34;14.80;99.90
16172;DHT22;8192;53.596;10.166;2024-02-16T14:07:01;14.80;99.90
16172;DHT22;8192;53.596;10.166;2024-02-16T14:09:28;14.80;99.90
16172;DHT22;8192;53.596;10.166;2024-02-16T14:11:56;14.90;99.90
16172;DHT22;8192;53.596;10.166;2024-02-16T14:14:24;14.90;99.90
16172;DHT22;8192;53.596;10.166;2024-02-16T14:16:53;14.90;99.90
16172;DHT22;8192;53.596;10.166;2024-02-16T14:19:20;14.90;99.90
16172;DHT22;8192;53.596;10.166;2024-02-16T14:21:47;15.00;99.90
16172;DHT22;8192;53.596;10.166;2024-02-16T14:24:14;15.00;99.90
16172;DHT22;8192;53.596;10.166;2024-02-16T14:26:41;15.00;99.90
16172;DHT22;8192;53.596;10.166;2024-02-16T14:29:09;15.00;99.90
16172;DHT22;8192;53.596;10.166;2024-02-16T14:31:36;15.00;99.90
16172;DHT22;8192;53.596;10.166;2024-02-16T14:34:04;15.00;99.90
16172;DHT22;8192;53.596;10.166;2024-02-16T14:36:31;14.80;99.90
16172;DHT22;8192;53.596;10.166;2024-02-16T14:38:58;14.80;99.90
16172;DHT22;8192;53.596;10.166;2024-02-16T14:41:25;14.80;99.90
16172;DHT22;8192;53.596;10.166;2024-02-16T14:43:53;14.70;99.90
16172;DHT22;8192;53.596;10.166;2024-02-16T14:46:25;14.70;99.90
16172;DHT22;8192;53.596;10.166;2024-02-16T14:48:52;14.60;99.90
16172;DHT22;8192;53.596;10.166;2024-02-16T14:51:20;14.60;99.90
16172;DHT22;8192;53.596;10.166;2024-02-16T14:53:49;14.50;99.90
16172;DHT22;8192;53.596;10.166;2024-02-16T14:56:16;14.50;99.90
16172;DHT22;8192;53.596;10.166;2024-02-16T14:58:47;14.40;99.90
16172;DHT22;8192;53.596;10.166;2024-02-16T15:01:14;14.30;99.90
16172;DHT22;8192;53.596;10.166;2024-02-16T15:03:42;14.30;99.90
16172;DHT22;8192;53.596;10.166;2024-02-16T15:06:09;14.30;99.90
16172;DHT22;8192;53.596;10.166;2024-02-16T15:08:37;14.30;99.90
16172;DHT22;8192;53.596;10.166;2024-02-16T15:11:04;14.20;99.90
16172;DHT22;8192;53.596;10.166;2024-02-16T15:13:31;14.20;99.90
16172;DHT22;8192;53.596;10.166;2024-02-16T15:15:58;14.10;99.90
16172;DHT22;8192;53.596;10.166;2024-02-16T15:18:26;13.90;99.90
16172;DHT22;8192;53.596;10.166;2024-02-16T15:20:53;13.70;99.90
16172;DHT22;8192;53.596;10.166;2024-02-16T15:23:20;13.60;99.90
16172;DHT22;8192;53.596;10.166;2024-02-16T15:25:48;13.50;99.90
16172;DHT22;8192;53.596;10.166;2024-02-16T15:28:15;13.30;99.90
16172;DHT22;8192;53.596;10.166;2024-02-16T15:30:42;13.30;99.90
16172;DHT22;8192;53.596;10.166;2024-02-16T15:33:12;13.30;99.90
16172;DHT22;8192;53.596;10.166;2024-02-16T15:35:39;13.20;99.90
16172;DHT22;8192;53.596;10.166;2024-02-16T15:38:06;13.10;99.90